This is the latest recevied weather packets stored in our database for station/object K2ATL. If no packets are shown the sender has not sent any weather packets the latest 10 day(s).
| Time | Temp. | Humidity | Pressure | Rain* | Wind** | Luminosity | Snow |
|---|---|---|---|---|---|---|---|
| 1787690224 | 27.22° C | 52% | 1103.4 hPa | 0 mm | - | 683 W/m² | - |
| 1787689921 | 27.22° C | 50% | 1103.6 hPa | 0 mm | - | 700 W/m² | - |
| 1787689616 | 27.78° C | 55% | 1103.4 hPa | 0 mm | - | 712 W/m² | - |
| 1787689311 | 27.78° C | 56% | 1103.4 hPa | 0 mm | - | 727 W/m² | - |
| 1787689006 | 28.33° C | 58% | 1103.6 hPa | 0 mm | - | 742 W/m² | - |
| 1787688703 | 26.67° C | 53% | 1103.4 hPa | 0 mm | - | 757 W/m² | - |
| 1787688403 | 27.78° C | 61% | 1103.4 hPa | 0 mm | - | 766 W/m² | - |
| 1787688103 | 28.33° C | 51% | 1103.5 hPa | 0 mm | - | 779 W/m² | - |
| 1787687798 | 28.33° C | 56% | 1103.7 hPa | 0 mm | - | 793 W/m² | - |
| 1787687493 | 27.78° C | 51% | 1103.6 hPa | 0 mm | - | 800 W/m² | - |
| 1787687189 | 27.22° C | 57% | 1103.6 hPa | 0 mm | - | 810 W/m² | - |
| 1787686884 | 26.67° C | 58% | 1103.7 hPa | 0 mm | - | 820 W/m² | - |
| 1787686581 | 26.11° C | 54% | 1103.8 hPa | 0 mm | - | 834 W/m² | - |
| 1787686275 | 26.67° C | 64% | 1103.9 hPa | 0 mm | - | 849 W/m² | - |
| 1787685972 | 26.11° C | 65% | 1103.9 hPa | 0 mm | - | 857 W/m² | - |
| 1787685667 | 25.56° C | 65% | 1104.1 hPa | 0 mm | - | 862 W/m² | - |
| 1787685366 | 25° C | 53% | 1104.1 hPa | 0 mm | - | 880 W/m² | - |
| 1787685061 | 25.56° C | 58% | 1104.2 hPa | 0 mm | - | 175 W/m² | - |
| 1787684756 | 27.78° C | 56% | 1104 hPa | 0 mm | - | 148 W/m² | - |
| 1787684455 | 28.33° C | 56% | 1104.2 hPa | 0 mm | - | 144 W/m² | - |
| 1787684151 | 25.56° C | 57% | 1104.1 hPa | 0 mm | - | 909 W/m² | - |
| 1787683850 | 25° C | 53% | 1104 hPa | 0 mm | - | 823 W/m² | - |
| 1787683546 | 26.11° C | 58% | 1104 hPa | 0 mm | - | 192 W/m² | - |
| 1787683241 | 25° C | 56% | 1104.3 hPa | 0 mm | - | 950 W/m² | - |
| 1787682938 | 25.56° C | 59% | 1104.1 hPa | 0 mm | - | 347 W/m² | - |
* Rain latest hour (hover to see other rain measurements)
** Current wind speed in m/s (hover to see current wind gust speed)